Time;durP1;ratioP1;P1;durP2;ratioP2;P2;SDS_P1;SDS_P2;PMS_P1;PMS_P2;Temp;Humidity;BMP_temperature;BMP_pressure;BME280_temperature;BME280_humidity;BME280_pressure;Samples;Min_cycle;Max_cycle;Signal;HPM_P1;HPM_P2
2023/08/21 00:00:22;;;;;;;10.15;3.75;;;21.00;99.90;;;20.18;100.00;98322.63;5002383;28;20507;-73
2023/08/21 00:02:48;;;;;;;6.18;3.38;;;21.00;99.90;;;20.23;100.00;98318.75;4969373;28;20054;-73
2023/08/21 00:05:16;;;;;;;7.97;3.40;;;21.00;99.90;;;20.23;100.00;98325.78;5002552;28;20621;-73
2023/08/21 00:07:44;;;;;;;6.20;3.83;;;21.00;99.90;;;20.26;100.00;98330.84;4980887;28;20093;-73
2023/08/21 00:10:13;;;;;;;7.70;3.47;;;21.00;99.90;;;20.24;100.00;98320.41;5000477;28;20227;-73
2023/08/21 00:12:41;;;;;;;7.78;3.05;;;21.00;99.90;;;20.17;100.00;98313.88;5001059;28;20057;-72
2023/08/21 00:15:09;;;;;;;7.20;3.47;;;21.00;99.90;;;20.16;100.00;98319.25;5003012;28;20050;-73
2023/08/21 00:17:36;;;;;;;6.45;3.85;;;20.90;99.90;;;20.11;100.00;98311.69;4999425;28;20057;-73
2023/08/21 00:20:05;;;;;;;10.50;3.63;;;20.90;99.90;;;20.03;100.00;98312.22;4998275;28;20042;-73
2023/08/21 00:22:32;;;;;;;8.23;3.63;;;20.90;99.90;;;20.00;100.00;98315.06;5003192;28;20499;-72
2023/08/21 00:25:00;;;;;;;7.20;3.15;;;20.80;99.90;;;19.95;100.00;98308.44;5004187;28;20041;-73
2023/08/21 00:27:27;;;;;;;7.10;3.67;;;20.80;99.90;;;19.91;100.00;98309.56;5003453;28;20101;-73
2023/08/21 00:29:54;;;;;;;8.45;3.80;;;20.80;99.90;;;19.89;100.00;98304.44;4999643;28;20100;-74
2023/08/21 00:32:21;;;;;;;8.85;3.80;;;20.70;99.90;;;19.97;100.00;98306.53;5002165;28;20620;-73
2023/08/21 00:34:48;;;;;;;10.68;4.07;;;20.70;99.90;;;19.94;100.00;98309.38;5014619;28;20514;-73
2023/08/21 00:37:15;;;;;;;8.23;3.70;;;20.70;99.90;;;19.93;100.00;98305.88;5000246;28;20057;-73
2023/08/21 00:39:43;;;;;;;7.88;3.30;;;20.70;99.90;;;19.91;100.00;98306.94;5001208;28;20050;-73
2023/08/21 00:42:09;;;;;;;7.45;3.50;;;20.70;99.90;;;19.83;100.00;98312.75;5001376;28;20054;-73
2023/08/21 00:44:36;;;;;;;7.25;3.45;;;20.70;99.90;;;19.81;100.00;98312.00;4983110;28;20168;-73
2023/08/21 00:47:04;;;;;;;7.53;3.42;;;20.60;99.90;;;19.83;100.00;98316.22;5000377;28;20133;-73
2023/08/21 00:49:32;;;;;;;6.03;4.00;;;20.60;99.90;;;19.83;100.00;98308.31;4997385;28;20061;-73
2023/08/21 00:52:01;;;;;;;8.98;3.70;;;20.60;99.90;;;19.89;100.00;98316.75;5000176;28;20108;-74
2023/08/21 00:54:29;;;;;;;11.75;4.13;;;20.60;99.90;;;19.79;100.00;98309.47;5005362;28;20064;-73
2023/08/21 00:56:56;;;;;;;8.65;3.65;;;20.60;99.90;;;19.83;100.00;98312.75;4983191;28;20064;-73
2023/08/21 00:59:24;;;;;;;10.27;4.43;;;20.60;99.90;;;19.78;100.00;98323.59;5000444;28;20061;-73
2023/08/21 01:01:51;;;;;;;6.60;3.78;;;20.60;99.90;;;19.78;100.00;98322.78;4986347;28;20522;-73
2023/08/21 01:04:19;;;;;;;7.22;3.80;;;20.50;99.90;;;19.83;100.00;98325.94;4999833;28;20052;-73
2023/08/21 01:06:46;;;;;;;11.75;4.22;;;20.50;99.90;;;19.84;100.00;98317.94;4986728;28;20046;-73
2023/08/21 01:09:50;;;;;;;5.10;3.58;;;20.50;99.90;;;19.84;100.00;98317.06;5000717;28;20583;-72
2023/08/21 01:12:48;;;;;;;8.57;3.97;;;20.50;99.90;;;19.81;100.00;98319.91;4984285;28;20506;-73
2023/08/21 01:15:15;;;;;;;6.80;3.53;;;20.50;99.90;;;19.95;100.00;98319.78;5002674;28;20149;-73
2023/08/21 01:17:45;;;;;;;5.47;2.90;;;20.50;99.90;;;20.06;100.00;98309.34;4991152;28;20070;-73
2023/08/21 01:20:13;;;;;;;9.07;4.10;;;20.40;99.90;;;19.95;100.00;98306.63;5002909;28;20056;-73
2023/08/21 01:22:45;;;;;;;5.53;3.92;;;20.40;99.90;;;20.05;100.00;98307.69;4984695;28;20212;-73
2023/08/21 01:25:13;;;;;;;4.75;3.70;;;20.50;99.90;;;20.03;100.00;98306.94;4983260;28;20045;-73
2023/08/21 01:27:44;;;;;;;5.85;4.07;;;20.50;99.90;;;19.99;100.00;98315.19;4998798;28;20054;-73
2023/08/21 01:30:11;;;;;;;8.07;4.70;;;20.50;99.90;;;20.03;100.00;98311.38;5001730;28;20100;-73
2023/08/21 01:32:47;;;;;;;7.03;4.68;;;20.50;99.90;;;20.05;100.00;98309.50;5001344;28;20785;-73
2023/08/21 01:35:15;;;;;;;9.30;4.43;;;20.50;99.90;;;19.97;100.00;98320.53;5000011;28;20145;-73
2023/08/21 01:37:43;;;;;;;7.68;4.20;;;20.50;99.90;;;19.97;100.00;98320.53;5003340;28;20046;-73
2023/08/21 01:40:10;;;;;;;9.50;4.15;;;20.50;99.90;;;19.87;100.00;98316.88;4998188;28;20054;-74
2023/08/21 01:42:40;;;;;;;9.07;4.55;;;20.40;99.90;;;19.69;100.00;98311.06;5008131;28;20062;-73
2023/08/21 01:45:08;;;;;;;9.05;5.07;;;20.30;99.90;;;19.65;100.00;98313.00;5004696;28;20073;-73
2023/08/21 01:47:35;;;;;;;11.02;4.63;;;20.30;99.90;;;19.71;100.00;98319.72;4987030;28;20050;-73
2023/08/21 01:50:02;;;;;;;8.95;4.45;;;20.30;99.90;;;19.73;100.00;98311.69;4989014;28;20053;-72
2023/08/21 01:52:29;;;;;;;8.45;4.85;;;20.30;99.90;;;19.76;100.00;98312.31;4993290;28;20580;-74
2023/08/21 01:54:57;;;;;;;9.32;4.10;;;20.20;99.90;;;19.84;100.00;98314.44;5021558;28;20137;-73
2023/08/21 01:57:24;;;;;;;8.75;4.53;;;20.30;99.90;;;19.76;100.00;98312.31;4990899;28;20108;-73
2023/08/21 01:59:51;;;;;;;8.07;4.50;;;20.30;99.90;;;19.75;100.00;98312.41;5009104;28;20647;-74
2023/08/21 02:02:18;;;;;;;7.90;5.05;;;20.30;99.90;;;19.64;100.00;98313.16;5004473;28;20050;-72
2023/08/21 02:04:46;;;;;;;9.25;4.45;;;20.20;99.90;;;19.59;100.00;98320.50;5009284;28;20467;-74
2023/08/21 02:07:13;;;;;;;7.07;4.97;;;20.20;99.90;;;19.54;100.00;98323.44;4990861;28;20149;-73
2023/08/21 02:09:40;;;;;;;13.80;5.43;;;20.20;99.90;;;19.52;100.00;98322.69;5003704;28;20062;-73
2023/08/21 02:12:07;;;;;;;9.45;4.72;;;20.10;99.90;;;19.55;100.00;98319.88;5003064;28;20046;-73
2023/08/21 02:14:34;;;;;;;8.30;4.22;;;20.10;99.90;;;19.54;100.00;98318.16;5005808;28;20165;-74
2023/08/21 02:17:02;;;;;;;9.50;4.40;;;20.00;99.90;;;19.50;100.00;98308.81;5003457;28;20052;-72
2023/08/21 02:19:29;;;;;;;10.60;5.20;;;20.00;99.90;;;19.49;100.00;98319.44;5004014;28;20506;-73
2023/08/21 02:21:56;;;;;;;7.72;4.60;;;20.00;99.90;;;19.40;100.00;98318.25;5002866;28;20116;-74
2023/08/21 02:24:23;;;;;;;9.88;4.85;;;20.00;99.90;;;19.46;100.00;98325.75;5005929;28;20115;-74
2023/08/21 02:26:50;;;;;;;8.75;4.53;;;20.00;99.90;;;19.35;100.00;98323.81;5006805;28;20054;-73
2023/08/21 02:29:18;;;;;;;8.00;5.90;;;20.00;99.90;;;19.30;100.00;98328.56;5002401;28;20057;-73
2023/08/21 02:31:45;;;;;;;8.73;5.20;;;20.00;99.90;;;19.30;100.00;98327.72;5006549;28;20465;-73
2023/08/21 02:34:12;;;;;;;12.43;4.38;;;20.00;99.90;;;19.27;100.00;98325.28;5009770;28;20633;-73
2023/08/21 02:36:42;;;;;;;9.73;4.47;;;19.90;99.90;;;19.21;100.00;98319.47;5007647;28;20537;-73
2023/08/21 02:39:09;;;;;;;10.15;5.47;;;19.90;99.90;;;19.21;100.00;98321.28;5011594;28;20046;-73
2023/08/21 02:41:36;;;;;;;8.38;5.43;;;19.90;99.90;;;19.19;100.00;98324.00;4974299;28;20591;-74
2023/08/21 02:44:03;;;;;;;9.55;5.22;;;19.90;99.90;;;19.26;100.00;98329.72;5008787;28;20081;-73
2023/08/21 02:46:30;;;;;;;7.35;5.18;;;19.90;99.90;;;19.22;100.00;98322.94;5006768;28;20061;-74
2023/08/21 02:48:57;;;;;;;8.18;4.72;;;19.90;99.90;;;19.17;100.00;98322.41;5005321;28;20487;-73
2023/08/21 02:51:25;;;;;;;9.43;6.00;;;19.80;99.90;;;19.30;100.00;98320.66;4991702;28;20057;-73
2023/08/21 02:53:53;;;;;;;8.77;5.47;;;19.80;99.90;;;19.29;100.00;98307.59;5006815;28;20062;-73
2023/08/21 02:56:20;;;;;;;9.52;5.43;;;19.80;99.90;;;19.25;100.00;98311.38;5003005;28;20113;-73
2023/08/21 02:58:48;;;;;;;7.70;4.65;;;19.80;99.90;;;19.18;100.00;98311.81;5002972;28;20137;-74
2023/08/21 03:01:15;;;;;;;10.57;5.88;;;19.80;99.90;;;19.08;100.00;98309.88;5005557;28;20108;-73
2023/08/21 03:03:42;;;;;;;8.43;5.15;;;19.80;99.90;;;19.27;100.00;98309.47;5000788;28;20058;-73
2023/08/21 03:06:09;;;;;;;6.55;4.70;;;19.80;99.90;;;19.33;100.00;98306.44;4990880;28;20398;-73
2023/08/21 03:08:37;;;;;;;8.07;4.63;;;19.80;99.90;;;19.41;100.00;98304.16;5004335;28;20058;-73
2023/08/21 03:11:04;;;;;;;10.52;4.15;;;19.80;99.90;;;19.30;100.00;98304.88;5006647;28;20128;-73
2023/08/21 03:13:31;;;;;;;6.72;4.88;;;19.80;99.90;;;19.11;100.00;98294.72;4985806;28;20046;-73
2023/08/21 03:15:58;;;;;;;6.57;4.80;;;19.80;99.90;;;19.25;100.00;98296.44;5002499;28;20050;-73
2023/08/21 03:18:31;;;;;;;7.03;4.72;;;19.80;99.90;;;19.12;100.00;98296.41;5001937;28;20053;-74
2023/08/21 03:20:58;;;;;;;8.38;4.32;;;19.80;99.90;;;18.99;100.00;98290.25;5006308;28;20054;-73
2023/08/21 03:23:25;;;;;;;8.52;6.07;;;19.70;99.90;;;19.07;100.00;98293.25;5001449;28;20081;-73
2023/08/21 03:25:53;;;;;;;8.02;4.95;;;19.70;99.90;;;19.10;100.00;98300.91;5005938;28;20081;-73
2023/08/21 03:28:20;;;;;;;7.18;5.05;;;19.60;99.90;;;19.07;100.00;98303.78;5020466;28;20461;-73
2023/08/21 03:30:47;;;;;;;7.53;5.85;;;19.70;99.90;;;18.86;100.00;98300.75;5007630;28;20165;-73
2023/08/21 03:33:14;;;;;;;8.55;5.65;;;19.60;99.90;;;18.90;100.00;98294.31;5004493;28;20061;-73
2023/08/21 03:35:41;;;;;;;7.57;5.97;;;19.60;99.90;;;18.85;100.00;98306.09;5005920;28;20056;-72
2023/08/21 03:38:08;;;;;;;10.10;4.90;;;19.50;99.90;;;18.74;100.00;98306.75;5004414;28;20470;-73
2023/08/21 03:40:37;;;;;;;6.00;4.70;;;19.40;99.90;;;18.75;100.00;98311.94;5006360;28;20404;-73
2023/08/21 03:43:05;;;;;;;7.47;4.55;;;19.40;99.90;;;18.59;100.00;98312.06;5005247;28;20458;-73
2023/08/21 03:45:32;;;;;;;7.30;4.68;;;19.40;99.90;;;18.70;100.00;98311.38;5005371;28;20511;-73
2023/08/21 03:47:59;;;;;;;7.70;5.50;;;19.30;99.90;;;18.67;100.00;98310.72;5002768;28;20045;-73
2023/08/21 03:50:26;;;;;;;11.82;4.22;;;19.30;99.90;;;18.58;100.00;98310.34;5000883;28;20061;-73
2023/08/21 03:52:53;;;;;;;8.35;6.05;;;19.30;99.90;;;18.47;100.00;98312.81;5014913;28;20065;-73
2023/08/21 03:55:21;;;;;;;7.38;4.00;;;19.20;99.90;;;18.37;100.00;98309.09;4991083;28;20050;-73
2023/08/21 03:57:48;;;;;;;7.90;5.63;;;19.10;99.90;;;18.38;100.00;98316.03;4972840;28;20081;-74
2023/08/21 04:00:16;;;;;;;5.85;3.92;;;19.10;99.90;;;18.41;100.00;98318.47;4999896;28;20510;-73
2023/08/21 04:02:43;;;;;;;7.25;3.33;;;19.10;99.90;;;18.41;100.00;98317.66;4987429;28;20124;-73
2023/08/21 04:05:10;;;;;;;9.38;4.18;;;19.00;99.90;;;18.48;100.00;98319.78;5009045;28;20128;-73
2023/08/21 04:07:38;;;;;;;6.63;4.38;;;19.10;99.90;;;18.54;100.00;98322.03;5005267;28;20530;-73
2023/08/21 04:10:06;;;;;;;13.48;5.07;;;19.00;99.90;;;18.44;100.00;98318.28;5007824;28;20561;-73
2023/08/21 04:12:33;;;;;;;12.68;5.47;;;19.10;99.90;;;18.42;100.00;98317.53;5002108;28;20153;-73
2023/08/21 04:15:01;;;;;;;9.48;5.20;;;19.10;99.90;;;18.41;100.00;98329.00;5005313;28;20061;-73
2023/08/21 04:17:28;;;;;;;7.75;4.32;;;19.10;99.90;;;18.42;100.00;98330.66;5002793;28;20045;-73
2023/08/21 04:19:55;;;;;;;7.53;5.95;;;19.00;99.90;;;18.42;100.00;98330.66;5002752;28;20049;-73
2023/08/21 04:22:22;;;;;;;7.22;5.78;;;19.00;99.90;;;18.37;100.00;98324.88;5004302;28;20518;-73
2023/08/21 04:24:49;;;;;;;11.02;5.75;;;19.00;99.90;;;18.31;100.00;98328.69;5003402;28;20053;-73
2023/08/21 04:27:17;;;;;;;8.40;3.80;;;19.00;99.90;;;18.31;100.00;98331.34;5004418;28;20084;-73
2023/08/21 04:29:44;;;;;;;8.73;4.25;;;19.00;99.90;;;18.33;100.00;98328.63;5006019;28;20474;-73
2023/08/21 04:32:12;;;;;;;8.93;4.70;;;19.00;99.90;;;18.31;100.00;98328.69;5002669;28;20064;-73
2023/08/21 04:34:39;;;;;;;7.72;5.50;;;19.00;99.90;;;18.29;100.00;98338.50;4980497;28;20153;-73
2023/08/21 04:37:06;;;;;;;8.25;5.20;;;19.00;99.90;;;18.33;100.00;98336.50;5001371;28;20541;-73
2023/08/21 04:39:34;;;;;;;11.63;4.72;;;19.00;99.90;;;18.37;100.00;98341.47;5004436;28;20050;-73
2023/08/21 04:42:02;;;;;;;6.20;4.20;;;19.00;99.90;;;18.27;100.00;98337.75;5004501;28;20141;-73
2023/08/21 04:44:30;;;;;;;9.38;4.10;;;18.90;99.90;;;18.37;100.00;98341.47;5006051;28;20064;-74
2023/08/21 04:46:57;;;;;;;11.75;5.55;;;18.90;99.90;;;18.37;100.00;98338.00;4998776;28;20043;-74
2023/08/21 04:49:24;;;;;;;8.52;4.90;;;19.00;99.90;;;18.44;100.00;98336.69;5001415;28;20427;-73
2023/08/21 04:51:51;;;;;;;6.85;5.38;;;19.00;99.90;;;18.59;100.00;98334.88;4999759;28;20086;-73
2023/08/21 04:54:18;;;;;;;8.27;5.07;;;19.00;99.90;;;18.59;100.00;98334.88;5002271;28;20129;-73
2023/08/21 04:56:45;;;;;;;4.93;3.60;;;19.00;99.90;;;18.83;100.00;98344.81;5000481;28;20077;-73
2023/08/21 04:59:12;;;;;;;5.90;3.50;;;19.10;99.90;;;18.88;100.00;98334.84;5000894;28;20124;-73
2023/08/21 05:01:40;;;;;;;7.68;3.55;;;19.20;99.90;;;18.76;100.00;98326.75;5000605;28;20053;-72
2023/08/21 05:04:11;;;;;;;6.30;3.83;;;19.20;99.90;;;18.95;100.00;98331.72;5002469;28;20065;-73
2023/08/21 05:06:38;;;;;;;8.13;4.78;;;19.20;99.90;;;19.00;100.00;98334.91;5002904;28;20049;-73
2023/08/21 05:09:05;;;;;;;8.45;5.13;;;19.30;99.90;;;18.95;100.00;98322.97;5001350;28;20046;-73
2023/08/21 05:11:32;;;;;;;5.80;4.38;;;19.30;99.90;;;19.05;100.00;98329.34;4999930;28;20077;-73
2023/08/21 05:13:59;;;;;;;5.55;3.60;;;19.40;99.90;;;19.02;100.00;98327.75;5002246;28;20135;-73
2023/08/21 05:16:28;;;;;;;8.50;4.57;;;19.50;99.90;;;18.89;100.00;98323.38;5002287;28;20147;-73
2023/08/21 05:18:55;;;;;;;8.80;4.78;;;19.50;99.90;;;18.88;100.00;98322.50;4989059;28;20050;-73
2023/08/21 05:21:22;;;;;;;6.00;3.67;;;19.40;99.90;;;19.03;100.00;98331.22;5000702;28;20133;-73
2023/08/21 05:23:49;;;;;;;7.32;3.45;;;19.50;99.90;;;19.09;100.00;98333.47;5001246;28;20092;-73
2023/08/21 05:26:16;;;;;;;4.63;3.33;;;19.50;99.90;;;19.28;100.00;98325.19;5003735;28;20427;-73
2023/08/21 05:28:43;;;;;;;11.70;4.20;;;19.60;99.90;;;19.23;100.00;98320.22;5008982;28;20127;-73
2023/08/21 05:31:11;;;;;;;6.75;4.60;;;19.60;99.90;;;19.35;100.00;98328.25;5003295;28;20176;-73
2023/08/21 05:33:38;;;;;;;7.05;4.97;;;19.60;99.90;;;19.20;100.00;98325.69;5005694;28;20217;-73
2023/08/21 05:36:06;;;;;;;8.07;5.05;;;19.70;99.90;;;19.35;100.00;98329.09;5007311;28;20081;-74
2023/08/21 05:38:33;;;;;;;8.93;5.70;;;19.70;99.90;;;19.40;100.00;98334.88;5004407;28;20474;-72
2023/08/21 05:41:00;;;;;;;7.15;4.20;;;19.80;99.90;;;19.73;100.00;98333.63;5004420;28;20050;-74
2023/08/21 05:43:28;;;;;;;9.05;4.47;;;19.90;99.90;;;19.76;100.00;98332.56;5001711;28;20053;-73
2023/08/21 05:45:55;;;;;;;5.22;4.65;;;20.00;99.90;;;19.90;100.00;98335.09;5003849;28;20490;-71
2023/08/21 05:48:22;;;;;;;9.32;5.35;;;20.20;99.90;;;20.04;100.00;98329.69;4986444;28;20046;-73
2023/08/21 05:50:53;;;;;;;5.00;4.10;;;20.20;99.90;;;20.25;100.00;98326.53;5006940;28;20057;-73
2023/08/21 05:53:20;;;;;;;5.45;3.75;;;20.30;99.90;;;20.50;100.00;98319.50;4999213;28;20081;-73
2023/08/21 05:55:47;;;;;;;7.78;5.35;;;20.40;99.90;;;20.46;100.00;98313.63;5001478;28;20060;-73
2023/08/21 05:58:15;;;;;;;6.97;4.95;;;20.50;99.90;;;20.66;100.00;98310.44;5000695;28;20135;-73
2023/08/21 06:00:44;;;;;;;6.95;4.72;;;20.60;99.90;;;20.76;100.00;98310.63;5004001;28;20127;-73
2023/08/21 06:03:11;;;;;;;8.18;5.43;;;20.70;99.90;;;20.81;100.00;98308.47;4989867;28;20054;-73
2023/08/21 06:05:39;;;;;;;11.57;5.97;;;20.90;99.90;;;20.60;100.00;98305.59;5002043;28;20103;-73
2023/08/21 06:08:08;;;;;;;7.05;5.82;;;20.90;99.90;;;20.67;100.00;98316.56;5002263;28;20046;-73
2023/08/21 06:10:36;;;;;;;8.00;6.07;;;20.90;99.90;;;20.68;100.00;98315.59;5005984;28;20046;-73
2023/08/21 06:13:03;;;;;;;8.63;6.55;;;20.90;99.90;;;20.47;100.00;98320.59;5006515;28;20064;-72
2023/08/21 06:15:30;;;;;;;8.68;6.38;;;20.90;99.90;;;20.56;100.00;98325.22;4997926;28;20125;-73
2023/08/21 06:17:59;;;;;;;11.55;6.32;;;20.90;99.90;;;20.80;100.00;98329.69;5002868;28;20146;-73
2023/08/21 06:20:26;;;;;;;7.18;5.93;;;21.00;99.90;;;21.23;100.00;98330.03;5004985;28;20096;-73
2023/08/21 06:22:53;;;;;;;9.77;6.30;;;21.20;99.90;;;21.38;100.00;98327.22;5004292;28;20511;-73
2023/08/21 06:25:21;;;;;;;6.40;5.35;;;21.40;99.90;;;21.71;100.00;98324.69;5004151;28;20133;-73
2023/08/21 06:27:48;;;;;;;7.60;6.03;;;21.60;99.90;;;21.81;100.00;98324.81;5006838;28;20049;-74
2023/08/21 06:30:29;;;;;;;8.95;5.97;;;21.80;99.90;;;21.96;100.00;98312.22;5002703;28;20132;-74
2023/08/21 06:32:56;;;;;;;10.10;5.97;;;21.90;99.90;;;22.21;100.00;98315.59;5001237;28;20050;-74
2023/08/21 06:35:23;;;;;;;7.57;5.47;;;22.10;99.90;;;22.45;100.00;98305.75;5001034;28;20598;-72
2023/08/21 06:37:50;;;;;;;8.55;5.88;;;22.20;99.90;;;22.48;100.00;98304.66;5001929;28;20069;-72
2023/08/21 06:40:18;;;;;;;9.38;5.60;;;22.40;99.90;;;22.42;100.00;98315.72;5008483;28;20152;-73
2023/08/21 06:42:45;;;;;;;7.25;5.47;;;22.50;99.90;;;22.75;100.00;98306.91;5001898;28;20137;-73
2023/08/21 06:45:12;;;;;;;8.25;5.72;;;22.60;99.90;;;22.92;100.00;98311.69;5002763;28;20054;-73
2023/08/21 06:47:40;;;;;;;6.60;5.70;;;22.80;99.90;;;23.11;100.00;98310.19;4997503;28;20399;-73
2023/08/21 06:50:08;;;;;;;7.03;5.72;;;23.00;99.90;;;23.24;100.00;98310.88;5004107;28;20050;-73
2023/08/21 06:52:35;;;;;;;7.55;5.53;;;23.20;99.90;;;23.52;100.00;98300.63;5006584;28;20085;-73
2023/08/21 06:55:03;;;;;;;6.72;5.28;;;23.40;99.90;;;23.73;100.00;98279.41;5005786;28;20057;-73
2023/08/21 06:57:31;;;;;;;9.65;5.68;;;23.50;99.90;;;23.79;100.00;98277.09;5005282;28;20103;-73
2023/08/21 06:59:59;;;;;;;7.50;5.28;;;23.70;99.90;;;24.05;100.00;98271.34;5001831;28;20503;-73
2023/08/21 07:02:27;;;;;;;6.10;5.50;;;23.80;99.90;;;24.25;100.00;98266.94;5002207;28;20074;-73
2023/08/21 07:04:54;;;;;;;6.07;5.13;;;24.00;99.90;;;24.52;100.00;98270.81;5002746;28;20825;-73
2023/08/21 07:07:21;;;;;;;6.05;5.30;;;24.20;99.90;;;24.64;100.00;98275.03;5002533;28;20077;-73
2023/08/21 07:09:50;;;;;;;7.65;5.60;;;24.40;99.90;;;24.50;100.00;98280.75;5004310;28;20514;-73
2023/08/21 07:12:17;;;;;;;9.18;6.07;;;24.60;99.90;;;24.63;100.00;98268.91;5018658;28;20074;-72
2023/08/21 07:14:44;;;;;;;8.85;5.03;;;24.70;99.90;;;24.61;100.00;98267.38;5003241;28;20050;-73
2023/08/21 07:17:11;;;;;;;8.55;5.03;;;24.80;99.90;;;24.76;100.00;98268.63;5004080;28;20132;-73
2023/08/21 07:19:38;;;;;;;6.95;5.35;;;24.90;99.90;;;24.74;100.00;98265.25;5000817;28;20077;-73
2023/08/21 07:22:05;;;;;;;7.85;5.30;;;25.00;99.90;;;24.87;100.00;98267.66;5004031;28;20053;-73
2023/08/21 07:24:32;;;;;;;7.95;5.05;;;25.00;99.90;;;25.18;100.00;98270.16;5002850;28;20141;-72
2023/08/21 07:26:59;;;;;;;7.95;4.50;;;25.10;99.90;;;25.23;100.00;98267.97;4998185;28;20050;-73
2023/08/21 07:29:26;;;;;;;8.80;4.72;;;25.30;99.90;;;25.34;100.00;98265.16;5003442;28;20080;-73
2023/08/21 07:31:53;;;;;;;8.30;4.75;;;25.40;99.90;;;25.34;100.00;98269.63;5005095;28;20073;-74
2023/08/21 07:34:23;;;;;;;8.77;5.18;;;25.50;99.90;;;25.31;100.00;98273.41;4988743;28;20045;-73
2023/08/21 07:36:50;;;;;;;9.68;4.30;;;25.50;99.90;;;25.61;100.00;98267.09;5002947;28;20458;-73
2023/08/21 07:39:17;;;;;;;7.47;5.05;;;25.50;99.90;;;25.61;100.00;98272.41;5002428;28;20404;-73
2023/08/21 07:41:45;;;;;;;11.63;4.93;;;25.60;99.90;;;25.72;100.00;98273.19;5002255;28;20480;-73
2023/08/21 07:44:15;;;;;;;5.55;5.00;;;25.80;99.90;;;25.64;100.00;98277.41;5013800;28;20061;-73
2023/08/21 07:46:42;;;;;;;8.45;5.72;;;25.80;99.90;;;25.80;100.00;98273.31;5000714;28;20360;-73
2023/08/21 07:49:09;;;;;;;6.10;4.50;;;25.90;99.90;;;26.00;100.00;98274.97;5002733;28;20073;-73
2023/08/21 07:51:36;;;;;;;8.73;4.97;;;26.00;99.90;;;25.85;100.00;98271.91;5004250;28;20046;-72
2023/08/21 07:54:03;;;;;;;7.03;4.90;;;26.00;99.90;;;26.03;100.00;98271.19;4999955;28;20112;-73
2023/08/21 07:56:31;;;;;;;8.20;4.63;;;26.00;99.90;;;26.09;100.00;98273.22;5003242;28;20108;-73
2023/08/21 07:59:01;;;;;;;7.10;4.97;;;26.10;99.90;;;26.39;100.00;98269.47;5017110;28;20068;-73
2023/08/21 08:01:29;;;;;;;8.53;4.93;;;26.30;99.90;;;26.43;100.00;98272.66;5004803;28;20132;-72
2023/08/21 08:03:56;;;;;;;7.00;4.53;;;26.50;99.90;;;26.30;100.00;98270.34;4998830;28;21321;-74
2023/08/21 08:06:24;;;;;;;8.50;4.70;;;26.60;99.90;;;26.61;100.00;98270.88;5003912;28;20498;-73
2023/08/21 08:08:51;;;;;;;6.88;4.75;;;26.70;99.90;;;26.46;100.00;98267.03;5005281;28;20062;-73
2023/08/21 08:11:19;;;;;;;7.25;4.97;;;26.80;99.90;;;26.91;100.00;98271.53;4999394;28;20054;-73
2023/08/21 08:13:46;;;;;;;9.18;4.80;;;26.90;99.90;;;26.89;100.00;98265.50;5001118;28;20061;-73
2023/08/21 08:16:13;;;;;;;6.40;4.35;;;27.10;99.90;;;27.26;100.00;98268.03;5003910;28;20576;-73
2023/08/21 08:18:40;;;;;;;10.32;4.50;;;27.10;99.90;;;27.86;100.00;98266.47;4998841;28;20518;-73
2023/08/21 08:21:08;;;;;;;7.68;4.47;;;27.20;99.90;;;28.41;100.00;98262.56;5003770;28;20129;-73
2023/08/21 08:23:36;;;;;;;5.35;3.78;;;27.40;99.90;;;29.34;100.00;98263.25;4987872;28;20129;-73
2023/08/21 08:26:03;;;;;;;8.55;3.95;;;27.80;99.90;;;29.83;100.00;98275.72;5003510;28;20135;-74
2023/08/21 08:28:30;;;;;;;6.07;4.25;;;28.10;99.90;;;30.47;100.00;98275.69;5002404;28;20050;-73
2023/08/21 08:30:57;;;;;;;7.40;3.35;;;28.60;99.90;;;30.53;100.00;98288.41;5005667;28;20515;-73
2023/08/21 08:33:25;;;;;;;5.82;3.40;;;29.20;99.90;;;31.02;100.00;98285.47;5003038;28;20042;-73
2023/08/21 08:35:52;;;;;;;4.72;3.40;;;29.90;99.90;;;31.48;100.00;98289.19;4995225;28;20587;-74
2023/08/21 08:38:19;;;;;;;4.75;3.05;;;30.70;99.90;;;31.99;100.00;98287.50;4997354;28;20141;-73
2023/08/21 08:40:48;;;;;;;6.05;3.10;;;31.60;99.90;;;32.01;100.00;98287.31;5000202;28;20422;-71
2023/08/21 08:43:15;;;;;;;5.90;3.05;;;32.30;99.90;;;32.04;100.00;98293.13;5002900;28;20156;-71
2023/08/21 08:45:47;;;;;;;3.38;2.35;;;32.90;99.90;;;32.13;100.00;98279.63;4998300;28;20081;-72
2023/08/21 08:48:16;;;;;;;4.20;1.92;;;33.70;99.90;;;33.26;100.00;98272.91;4984277;28;20129;-71
2023/08/21 08:50:45;;;;;;;4.47;1.95;;;34.10;99.90;;;33.77;100.00;98277.25;5015326;28;20058;-71
2023/08/21 08:53:12;;;;;;;3.17;1.80;;;34.40;99.90;;;32.25;100.00;98272.75;4999435;28;20084;-70
2023/08/21 08:55:44;;;;;;;3.38;2.00;;;35.10;99.90;;;33.06;100.00;98267.31;5002014;28;20478;-71
2023/08/21 08:58:12;;;;;;;2.80;1.67;;;35.10;99.90;;;32.86;100.00;98275.97;5004673;28;20078;-70
2023/08/21 09:00:40;;;;;;;3.40;1.92;;;35.40;99.90;;;32.54;100.00;98273.78;5004828;28;20046;-72
2023/08/21 09:03:08;;;;;;;4.50;2.13;;;35.50;99.50;;;33.84;100.00;98267.34;5008359;28;20085;-71
2023/08/21 09:05:36;;;;;;;7.13;2.45;;;35.40;99.30;;;33.94;100.00;98270.53;4992325;28;20046;-71
2023/08/21 09:08:11;;;;;;;5.13;2.97;;;35.50;99.90;;;33.72;100.00;98283.22;4990662;28;20165;-72
2023/08/21 09:10:41;;;;;;;3.78;2.75;;;35.70;99.90;;;33.63;100.00;98273.63;5015953;28;20185;-72
2023/08/21 09:13:19;;;;;;;3.58;2.25;;;35.60;99.40;;;34.99;100.00;98269.31;4990323;28;20061;-71
2023/08/21 09:15:55;;;;;;;3.67;2.40;;;36.00;98.90;;;34.14;100.00;98267.97;5017654;28;20050;-72
2023/08/21 09:18:22;;;;;;;7.10;2.63;;;36.20;97.30;;;34.26;100.00;98260.97;5006457;28;20537;-71
2023/08/21 09:20:50;;;;;;;6.95;2.42;;;36.10;97.70;;;34.40;100.00;98267.25;5002629;28;20065;-72
2023/08/21 09:23:18;;;;;;;6.28;2.50;;;36.00;97.70;;;34.68;100.00;98258.25;5020595;28;20167;-70
2023/08/21 09:25:47;;;;;;;4.50;2.22;;;36.00;97.40;;;33.96;100.00;98254.97;4999978;28;20037;-71
2023/08/21 09:28:23;;;;;;;4.23;2.33;;;36.40;96.80;;;33.78;100.00;98257.34;5006400;28;20085;-71
2023/08/21 09:30:58;;;;;;;3.35;2.20;;;36.20;96.80;;;34.13;100.00;98258.22;5018400;28;20320;-71
2023/08/21 09:33:25;;;;;;;7.53;2.33;;;36.00;96.50;;;34.41;100.00;98252.75;5002703;28;20049;-71
2023/08/21 09:35:54;;;;;;;3.75;1.90;;;35.70;96.50;;;34.54;100.00;98254.66;5004359;28;20140;-72
2023/08/21 09:38:22;;;;;;;5.03;2.03;;;35.90;96.50;;;34.30;100.00;98250.63;5018541;28;20477;-71
2023/08/21 09:40:53;;;;;;;5.43;2.35;;;35.80;95.70;;;34.92;100.00;98248.75;5015954;28;20042;-70
2023/08/21 09:43:22;;;;;;;4.57;1.77;;;36.10;95.70;;;34.94;100.00;98244.84;5001892;28;20046;-72
2023/08/21 09:45:55;;;;;;;4.63;2.08;;;36.30;95.00;;;34.40;100.00;98252.97;5003470;28;20058;-74
2023/08/21 09:48:23;;;;;;;5.90;1.80;;;36.40;95.10;;;34.92;100.00;98246.03;5021278;28;20045;-72
2023/08/21 09:50:54;;;;;;;2.78;1.40;;;36.50;94.10;;;35.11;100.00;98239.88;5019614;28;20060;-72
2023/08/21 09:53:22;;;;;;;2.80;1.55;;;36.40;93.50;;;35.91;100.00;98247.13;5001780;28;20100;-73
2023/08/21 09:55:54;;;;;;;3.92;1.40;;;36.40;93.30;;;36.43;100.00;98231.78;5019194;28;20132;-72
2023/08/21 09:58:22;;;;;;;3.30;1.42;;;36.60;93.60;;;34.82;100.00;98245.63;5008593;28;20077;-75
2023/08/21 10:00:51;;;;;;;4.57;2.05;;;36.70;92.90;;;35.07;100.00;98243.19;5018042;28;20139;-72
2023/08/21 10:03:21;;;;;;;4.18;1.63;;;36.50;92.80;;;34.89;100.00;98244.59;5004046;28;20066;-72
2023/08/21 10:05:49;;;;;;;4.20;1.70;;;36.00;92.40;;;35.43;100.00;98239.28;5004229;28;20054;-72
2023/08/21 10:08:24;;;;;;;3.15;1.63;;;35.80;92.40;;;35.15;100.00;98243.03;5006480;28;20046;-71
2023/08/21 10:10:59;;;;;;;5.22;1.77;;;35.90;92.30;;;35.75;100.00;98234.91;4989069;28;20518;-72
2023/08/21 10:13:30;;;;;;;2.55;1.50;;;36.30;92.90;;;36.46;100.00;98228.63;5008260;28;20050;-72
2023/08/21 10:15:57;;;;;;;3.72;1.90;;;36.60;93.10;;;36.44;100.00;98231.53;5004849;28;20133;-72